createdAt,value
2023-02-27T00:02:39.278Z,100211.10
2023-02-27T00:06:08.689Z,100214.88
2023-02-27T00:09:38.106Z,100214.41
2023-02-27T00:13:07.667Z,100214.40
2023-02-27T00:16:36.976Z,100220.06
2023-02-27T00:20:05.668Z,100226.56
2023-02-27T00:23:25.630Z,100226.34
2023-02-27T00:26:55.118Z,100235.23
2023-02-27T00:30:05.929Z,100243.98
2023-02-27T00:33:34.697Z,100250.64
2023-02-27T00:36:46.102Z,100250.14
2023-02-27T00:40:15.388Z,100249.15
2023-02-27T00:43:44.602Z,100253.20
2023-02-27T00:47:13.371Z,100255.14
2023-02-27T00:50:42.237Z,100259.51
2023-02-27T00:54:11.320Z,100262.23
2023-02-27T00:57:39.034Z,100262.57
2023-02-27T01:01:01.196Z,100259.23
2023-02-27T01:04:30.054Z,100265.15
2023-02-27T01:07:59.458Z,100267.85
2023-02-27T01:11:22.014Z,100278.23
2023-02-27T01:14:50.851Z,100280.98
2023-02-27T01:18:20.034Z,100283.04
2023-02-27T01:21:38.172Z,100283.05
2023-02-27T01:25:00.236Z,100286.21
2023-02-27T01:28:29.437Z,100291.41
2023-02-27T01:31:57.195Z,100292.09
2023-02-27T01:35:26.311Z,100287.78
2023-02-27T01:38:55.539Z,100291.69
2023-02-27T01:42:24.635Z,100299.91
2023-02-27T01:46:18.014Z,100305.29
2023-02-27T01:49:49.534Z,100310.45
2023-02-27T01:53:18.610Z,100316.52
2023-02-27T01:56:47.757Z,100318.48
2023-02-27T02:00:07.364Z,100317.78
2023-02-27T02:03:39.611Z,100320.64
2023-02-27T02:07:08.253Z,100323.58
2023-02-27T02:10:30.493Z,100322.59
2023-02-27T02:13:59.672Z,100329.69
2023-02-27T02:17:27.309Z,100331.93
2023-02-27T02:20:46.979Z,100333.66
2023-02-27T02:24:13.630Z,100335.77
2023-02-27T02:27:42.694Z,100336.42
2023-02-27T02:31:10.117Z,100342.27
2023-02-27T02:34:52.136Z,100344.35
2023-02-27T02:38:19.545Z,100351.42
2023-02-27T02:42:07.133Z,100346.63
2023-02-27T02:45:44.878Z,100346.10
2023-02-27T02:49:14.207Z,100353.88
2023-02-27T02:52:43.653Z,100353.58
2023-02-27T02:56:12.969Z,100357.36
2023-02-27T02:59:44.213Z,100354.33
2023-02-27T03:03:22.370Z,100357.92
2023-02-27T03:06:52.183Z,100360.73
2023-02-27T03:10:27.120Z,100360.08
2023-02-27T03:13:56.439Z,100363.73
2023-02-27T03:17:20.111Z,100362.55
2023-02-27T03:20:49.208Z,100363.09
2023-02-27T03:24:26.590Z,100368.92
2023-02-27T03:27:48.937Z,100370.41
2023-02-27T03:31:23.204Z,100375.90
2023-02-27T03:34:46.632Z,100376.22
2023-02-27T03:38:20.567Z,100381.70
2023-02-27T03:41:57.789Z,100385.87
2023-02-27T03:45:44.518Z,100391.35
2023-02-27T03:49:13.699Z,100394.17
2023-02-27T03:52:35.740Z,100395.23
2023-02-27T03:56:04.670Z,100396.81
2023-02-27T03:59:33.820Z,100401.40
2023-02-27T04:02:51.732Z,100400.65
2023-02-27T04:06:19.386Z,100398.70
2023-02-27T04:10:03.693Z,100402.09
2023-02-27T04:13:40.946Z,100400.84
2023-02-27T04:17:15.966Z,100401.68
2023-02-27T04:21:02.686Z,100401.79
2023-02-27T04:24:35.216Z,100403.52
2023-02-27T04:28:13.256Z,100402.47
2023-02-27T04:31:45.046Z,100404.84
2023-02-27T04:35:20.738Z,100400.82
2023-02-27T04:38:56.101Z,100406.66
2023-02-27T04:42:30.278Z,100407.94
2023-02-27T04:45:59.396Z,100413.70
2023-02-27T04:49:30.636Z,100415.40
2023-02-27T04:53:02.315Z,100414.04
2023-02-27T04:56:33.647Z,100420.24
2023-02-27T05:00:02.839Z,100424.75
2023-02-27T05:03:34.261Z,100426.66
2023-02-27T05:06:58.708Z,100426.16
2023-02-27T05:10:33.637Z,100427.27
2023-02-27T05:14:09.137Z,100433.18
2023-02-27T05:17:30.676Z,100426.58
2023-02-27T05:20:59.996Z,100428.92
2023-02-27T05:24:43.337Z,100435.77
2023-02-27T05:28:27.029Z,100434.61
2023-02-27T05:32:11.116Z,100435.84
2023-02-27T05:35:40.022Z,100441.25
2023-02-27T05:39:09.526Z,100435.00
2023-02-27T05:42:38.652Z,100436.23
2023-02-27T05:46:07.805Z,100437.79
2023-02-27T05:49:31.043Z,100436.38
2023-02-27T05:53:00.389Z,100439.38
2023-02-27T05:56:29.339Z,100443.25
2023-02-27T05:59:55.893Z,100452.72
2023-02-27T06:03:25.146Z,100453.17
2023-02-27T06:06:44.749Z,100454.84
2023-02-27T06:10:13.628Z,100460.80
2023-02-27T06:13:24.892Z,100458.55
2023-02-27T06:16:39.421Z,100455.36
2023-02-27T06:20:08.318Z,100449.95
2023-02-27T06:23:17.430Z,100448.40
2023-02-27T06:26:46.553Z,100447.04
2023-02-27T06:29:55.410Z,100443.83
2023-02-27T06:33:11.226Z,100446.73
2023-02-27T06:36:40.256Z,100447.79
2023-02-27T06:40:09.710Z,100450.54
2023-02-27T06:43:29.001Z,100446.66
2023-02-27T06:46:58.451Z,100444.06
2023-02-27T06:49:29.710Z,100444.55
2023-02-27T06:52:48.784Z,100448.58
2023-02-27T06:56:18.102Z,100451.20
2023-02-27T06:59:46.918Z,100451.23
2023-02-27T07:02:46.227Z,100449.67
2023-02-27T07:05:55.663Z,100452.45
2023-02-27T07:09:24.837Z,100452.79
2023-02-27T07:12:53.973Z,100454.29
2023-02-27T07:16:23.028Z,100458.81
2023-02-27T07:19:52.407Z,100461.27
2023-02-27T07:23:21.395Z,100463.72
2023-02-27T07:26:50.305Z,100466.15
2023-02-27T07:30:19.699Z,100465.92
2023-02-27T07:33:49.394Z,100468.61
2023-02-27T07:37:18.770Z,100465.02
2023-02-27T07:40:48.461Z,100470.30
2023-02-27T07:44:17.782Z,100470.25
2023-02-27T07:47:46.920Z,100475.06
2023-02-27T07:51:07.679Z,100473.98
2023-02-27T07:54:36.605Z,100469.33
2023-02-27T07:58:05.903Z,100466.58
2023-02-27T08:01:38.184Z,100466.65
2023-02-27T08:05:07.659Z,100470.71
2023-02-27T08:08:31.353Z,100473.23
2023-02-27T08:12:00.743Z,100472.60
2023-02-27T08:15:30.353Z,100470.95
2023-02-27T08:18:59.677Z,100467.41
2023-02-27T08:22:22.650Z,100475.40
2023-02-27T08:25:56.094Z,100471.48
2023-02-27T08:29:17.898Z,100478.63
2023-02-27T08:32:39.701Z,100474.59
2023-02-27T08:36:11.149Z,100474.40
2023-02-27T08:39:39.958Z,100475.81
2023-02-27T08:43:08.944Z,100474.48
2023-02-27T08:46:38.300Z,100474.55
2023-02-27T08:50:00.687Z,100474.22
2023-02-27T08:53:29.918Z,100479.83
2023-02-27T08:56:58.978Z,100476.20
2023-02-27T09:00:28.099Z,100479.70
2023-02-27T09:03:41.420Z,100477.16
2023-02-27T09:07:11.206Z,100475.67
2023-02-27T09:10:40.717Z,100480.38
2023-02-27T09:14:03.312Z,100480.90
2023-02-27T09:17:32.709Z,100480.57
2023-02-27T09:21:02.366Z,100475.62
2023-02-27T09:24:31.563Z,100475.86
2023-02-27T09:27:50.923Z,100475.98
2023-02-27T09:31:05.430Z,100471.45
2023-02-27T09:34:34.597Z,100471.09
2023-02-27T09:38:02.898Z,100473.95
2023-02-27T09:41:32.130Z,100474.77
2023-02-27T09:45:13.430Z,100475.39
2023-02-27T09:48:42.985Z,100468.09
2023-02-27T09:52:12.397Z,100468.23
2023-02-27T09:55:41.636Z,100466.68
2023-02-27T09:59:16.884Z,100465.32
2023-02-27T10:03:05.007Z,100469.64
2023-02-27T10:06:46.434Z,100464.19
2023-02-27T10:10:24.118Z,100458.69
2023-02-27T10:13:53.589Z,100458.51
2023-02-27T10:17:06.386Z,100450.64
2023-02-27T10:20:29.289Z,100446.02
2023-02-27T10:23:58.554Z,100435.58
2023-02-27T10:27:27.638Z,100423.23
2023-02-27T10:30:59.300Z,100415.67
2023-02-27T10:34:30.750Z,100406.27
2023-02-27T10:37:59.971Z,100394.98
2023-02-27T10:41:29.425Z,100386.87
2023-02-27T10:45:01.928Z,100381.27
2023-02-27T10:48:31.374Z,100377.27
2023-02-27T10:52:03.313Z,100372.64
2023-02-27T10:55:32.550Z,100368.23
2023-02-27T10:59:01.500Z,100364.27
2023-02-27T11:02:36.865Z,100363.48
2023-02-27T11:06:08.995Z,100366.44
2023-02-27T11:09:36.783Z,100366.50
2023-02-27T11:13:15.146Z,100363.23
2023-02-27T11:16:47.539Z,100365.84
2023-02-27T11:20:07.230Z,100359.32
2023-02-27T11:23:47.750Z,100356.39
2023-02-27T11:27:16.485Z,100355.75
2023-02-27T11:30:44.551Z,100354.04
2023-02-27T11:34:13.345Z,100349.06
2023-02-27T11:37:42.726Z,100341.98
2023-02-27T11:41:14.344Z,100336.50
2023-02-27T11:44:50.737Z,100327.28
2023-02-27T11:48:13.472Z,100322.31
2023-02-27T11:51:42.486Z,100318.04
2023-02-27T11:55:23.147Z,100315.30
2023-02-27T11:58:39.881Z,100319.85
2023-02-27T12:02:14.441Z,100319.65
2023-02-27T12:06:01.862Z,100312.95
2023-02-27T12:09:43.767Z,100301.59
2023-02-27T12:13:18.664Z,100287.60
2023-02-27T12:16:47.855Z,100285.80
2023-02-27T12:20:44.224Z,100284.20
2023-02-27T12:24:34.451Z,100280.09
2023-02-27T12:28:06.040Z,100267.65
2023-02-27T12:31:56.550Z,100259.80
2023-02-27T12:35:28.550Z,100248.85
2023-02-27T12:38:57.538Z,100244.16
2023-02-27T12:42:35.533Z,100235.90
2023-02-27T12:46:05.668Z,100227.78
2023-02-27T12:49:36.188Z,100212.79
2023-02-27T12:53:03.384Z,100202.45
2023-02-27T12:56:25.946Z,100199.00
2023-02-27T12:59:52.044Z,100193.81
2023-02-27T13:03:30.762Z,100183.35
2023-02-27T13:07:00.024Z,100177.38
2023-02-27T13:10:35.608Z,100166.02
2023-02-27T13:14:07.778Z,100157.83
2023-02-27T13:17:43.065Z,100152.55
2023-02-27T13:21:27.714Z,100140.01
2023-02-27T13:25:00.141Z,100130.70
2023-02-27T13:28:41.653Z,100126.33
2023-02-27T13:32:41.273Z,100122.44
2023-02-27T13:36:37.686Z,100113.45
2023-02-27T13:40:21.912Z,100100.77
2023-02-27T13:44:08.975Z,100092.59
2023-02-27T13:47:38.030Z,100086.52
2023-02-27T13:51:07.249Z,100080.68
2023-02-27T13:54:36.688Z,100075.98
2023-02-27T13:57:57.773Z,100072.05
2023-02-27T14:01:27.051Z,100068.80
2023-02-27T14:04:48.133Z,100069.09
2023-02-27T14:08:17.147Z,100059.13
2023-02-27T14:12:04.702Z,100058.59
2023-02-27T14:15:31.513Z,100056.15
2023-02-27T14:18:59.100Z,100052.80
2023-02-27T14:22:35.961Z,100040.24
2023-02-27T14:26:02.592Z,100026.59
2023-02-27T14:29:37.844Z,100017.73
2023-02-27T14:33:08.166Z,100007.80
2023-02-27T14:36:40.281Z,99998.73
2023-02-27T14:40:42.581Z,99989.74
2023-02-27T14:44:20.111Z,99987.35
2023-02-27T14:47:49.418Z,99982.49
2023-02-27T14:51:24.864Z,99977.84
2023-02-27T14:54:51.097Z,99969.45
2023-02-27T14:57:58.126Z,99956.73
2023-02-27T15:01:38.726Z,99952.25
2023-02-27T15:05:10.105Z,99943.34
2023-02-27T15:08:38.816Z,99937.16
2023-02-27T15:12:06.757Z,99934.26
2023-02-27T15:15:35.601Z,99924.94
2023-02-27T15:19:04.501Z,99914.34
2023-02-27T15:22:39.403Z,99911.42
2023-02-27T15:26:01.800Z,99899.61
2023-02-27T15:29:30.487Z,99897.20
2023-02-27T15:32:59.124Z,99893.98
2023-02-27T15:36:27.922Z,99886.09
2023-02-27T15:40:08.603Z,99882.65
2023-02-27T15:43:37.570Z,99876.75
2023-02-27T15:47:06.285Z,99876.90
2023-02-27T15:50:38.336Z,99872.55
2023-02-27T15:54:10.390Z,99868.97
2023-02-27T15:57:39.194Z,99867.08
2023-02-27T16:01:01.673Z,99865.33
2023-02-27T16:04:30.847Z,99863.06
2023-02-27T16:07:42.183Z,99858.55
2023-02-27T16:11:11.833Z,99848.64
2023-02-27T16:14:40.625Z,99836.20
2023-02-27T16:17:57.747Z,99835.48
2023-02-27T16:21:29.388Z,99835.78
2023-02-27T16:25:01.210Z,99833.04
2023-02-27T16:28:29.953Z,99827.48
2023-02-27T16:32:14.687Z,99822.89
2023-02-27T16:35:44.332Z,99819.89
2023-02-27T16:38:56.144Z,99819.96
2023-02-27T16:42:25.096Z,99820.20
2023-02-27T16:45:57.354Z,99821.83
2023-02-27T16:49:19.077Z,99827.10
2023-02-27T16:52:48.575Z,99829.80
2023-02-27T16:56:21.390Z,99831.30
2023-02-27T16:59:52.443Z,99835.84
2023-02-27T17:03:21.226Z,99840.73
2023-02-27T17:06:50.135Z,99836.20
2023-02-27T17:10:19.181Z,99838.83
2023-02-27T17:13:50.519Z,99845.05
2023-02-27T17:17:20.041Z,99843.20
2023-02-27T17:20:49.109Z,99838.63
2023-02-27T17:24:20.470Z,99836.77
2023-02-27T17:27:49.159Z,99829.42
2023-02-27T17:31:17.895Z,99830.52
2023-02-27T17:34:46.720Z,99827.13
2023-02-27T17:38:15.476Z,99827.50
2023-02-27T17:41:49.783Z,99823.35
2023-02-27T17:45:18.420Z,99823.13
2023-02-27T17:48:48.125Z,99814.08
2023-02-27T17:52:16.905Z,99810.86
2023-02-27T17:55:45.640Z,99805.93
2023-02-27T17:59:14.347Z,99807.06
2023-02-27T18:02:34.472Z,99802.34
2023-02-27T18:06:03.292Z,99805.61
2023-02-27T18:09:25.299Z,99807.92
2023-02-27T18:12:54.596Z,99800.65
2023-02-27T18:16:23.728Z,99794.40
2023-02-27T18:19:46.144Z,99782.12
2023-02-27T18:23:16.731Z,99768.77
2023-02-27T18:26:46.055Z,99750.56
2023-02-27T18:30:15.230Z,99760.65
2023-02-27T18:33:37.410Z,99763.98
2023-02-27T18:37:06.448Z,99753.48
2023-02-27T18:40:35.513Z,99740.58
2023-02-27T18:44:04.526Z,99731.48
2023-02-27T18:47:33.812Z,99717.07
2023-02-27T18:51:03.290Z,99701.08
2023-02-27T18:54:13.012Z,99701.95
2023-02-27T18:57:42.085Z,99703.11
2023-02-27T19:01:11.515Z,99702.56
2023-02-27T19:04:41.081Z,99697.38
2023-02-27T19:08:01.085Z,99695.64
2023-02-27T19:11:30.284Z,99694.06
2023-02-27T19:14:58.990Z,99685.63
2023-02-27T19:18:28.120Z,99684.20
2023-02-27T19:21:57.247Z,99681.09
2023-02-27T19:25:25.937Z,99678.99
2023-02-27T19:28:54.729Z,99672.77
2023-02-27T19:32:23.438Z,99674.92
2023-02-27T19:35:51.592Z,99667.80
2023-02-27T19:39:20.873Z,99656.55
2023-02-27T19:42:50.234Z,99655.27
2023-02-27T19:46:19.569Z,99651.05
2023-02-27T19:49:48.471Z,99641.81
2023-02-27T19:53:17.705Z,99639.28
2023-02-27T19:56:49.643Z,99634.86
2023-02-27T20:00:18.688Z,99627.53
2023-02-27T20:03:47.933Z,99624.17
2023-02-27T20:07:17.160Z,99621.13
2023-02-27T20:10:39.174Z,99620.73
2023-02-27T20:14:08.213Z,99615.12
2023-02-27T20:17:37.324Z,99613.77
2023-02-27T20:24:49.033Z,99619.49
2023-02-27T20:28:18.223Z,99619.84
2023-02-27T20:31:50.598Z,99623.30
2023-02-27T20:35:20.467Z,99627.05
2023-02-27T20:38:39.986Z,99618.02
2023-02-27T20:42:08.922Z,99615.68
2023-02-27T20:45:28.488Z,99616.78
2023-02-27T20:48:58.003Z,99617.60
2023-02-27T20:52:20.797Z,99614.80
2023-02-27T20:55:50.147Z,99615.79
2023-02-27T20:59:19.450Z,99617.28
2023-02-27T21:02:49.317Z,99616.34
2023-02-27T21:06:18.567Z,99608.51
2023-02-27T21:09:46.526Z,99612.58
2023-02-27T21:13:15.674Z,99606.69
2023-02-27T21:16:11.038Z,99606.30
2023-02-27T21:19:40.359Z,99605.21
2023-02-27T21:22:52.355Z,99598.94
2023-02-27T21:26:24.423Z,99597.14
2023-02-27T21:29:56.945Z,99598.89
2023-02-27T21:33:26.119Z,99596.17
2023-02-27T21:36:53.969Z,99600.36
2023-02-27T21:40:23.442Z,99598.59
2023-02-27T21:43:52.584Z,99599.44
2023-02-27T21:47:21.262Z,99594.29
2023-02-27T21:50:50.225Z,99594.09
2023-02-27T21:54:08.312Z,99588.73
2023-02-27T21:57:27.144Z,99581.66
2023-02-27T22:00:56.389Z,99580.25
2023-02-27T22:04:25.889Z,99578.29
2023-02-27T22:07:40.675Z,99575.58
2023-02-27T22:11:02.841Z,99568.46
2023-02-27T22:14:22.563Z,99567.39
2023-02-27T22:17:51.947Z,99567.52
2023-02-27T22:21:21.390Z,99565.27
2023-02-27T22:24:50.659Z,99560.49
2023-02-27T22:28:12.080Z,99558.80
2023-02-27T22:31:47.934Z,99557.48
2023-02-27T22:35:17.210Z,99554.98
2023-02-27T22:38:46.134Z,99548.02
2023-02-27T22:42:15.279Z,99548.23
2023-02-27T22:45:44.522Z,99539.16
2023-02-27T22:49:13.878Z,99541.58
2023-02-27T22:52:43.490Z,99535.61
2023-02-27T22:55:55.691Z,99524.11
2023-02-27T22:59:25.803Z,99519.01
2023-02-27T23:02:55.223Z,99515.95
2023-02-27T23:06:27.721Z,99510.31
2023-02-27T23:09:59.724Z,99506.59
2023-02-27T23:13:29.209Z,99500.48
2023-02-27T23:16:51.644Z,99500.91
2023-02-27T23:20:13.374Z,99506.30
2023-02-27T23:23:42.076Z,99511.16
2023-02-27T23:27:25.130Z,99503.33
2023-02-27T23:30:54.912Z,99506.18
2023-02-27T23:34:24.141Z,99509.53
2023-02-27T23:37:53.478Z,99506.71
2023-02-27T23:41:22.532Z,99502.61
2023-02-27T23:44:49.787Z,99497.96
2023-02-27T23:48:18.844Z,99490.91
2023-02-27T23:51:40.363Z,99486.42
2023-02-27T23:55:00.287Z,99492.25
2023-02-27T23:58:29.617Z,99485.73
